createdAt,value
2018-07-03T07:26:46.885Z,23.79
2018-07-03T07:27:47.811Z,23.94
2018-07-03T07:28:47.792Z,24.06
2018-07-03T07:29:47.793Z,23.99
2018-07-03T07:30:47.737Z,23.97
2018-07-03T07:31:47.745Z,24.05
2018-07-03T07:32:47.675Z,24.08
2018-07-03T07:33:47.613Z,24.15
2018-07-03T07:34:47.579Z,24.26
2018-07-03T07:35:47.528Z,24.16
2018-07-03T07:36:47.492Z,24.15
2018-07-03T07:37:47.435Z,24.24
2018-07-03T07:38:47.391Z,27.24
2018-07-03T07:39:47.323Z,28.01
2018-07-03T07:40:47.337Z,26.66
2018-07-03T07:41:47.250Z,25.63
2018-07-03T07:42:47.223Z,25.04
2018-07-03T07:43:47.121Z,24.60
2018-07-03T07:44:47.069Z,24.39
2018-07-03T07:45:47.018Z,24.26
2018-07-03T07:46:47.005Z,24.29
2018-07-03T07:47:46.960Z,24.26
2018-07-03T07:48:46.889Z,24.24
2018-07-03T07:49:46.805Z,24.26
2018-07-03T07:50:46.843Z,24.23
2018-07-03T07:51:46.691Z,24.15
2018-07-03T07:52:46.662Z,24.05
2018-07-03T07:53:46.591Z,24.09
2018-07-03T07:54:46.581Z,24.00
2018-07-03T07:55:46.519Z,23.99
2018-07-03T07:56:46.460Z,23.94
2018-07-03T07:57:46.450Z,23.84
2018-07-03T07:58:46.376Z,23.86
2018-07-03T07:59:46.336Z,23.97
2018-07-03T08:00:46.277Z,23.94
2018-07-03T08:01:46.240Z,23.97
2018-07-03T08:02:46.221Z,23.96
2018-07-03T08:03:40.085Z,23.82
2018-07-03T08:04:41.067Z,23.82
2018-07-03T08:05:41.044Z,23.78
2018-07-03T08:06:41.035Z,23.90
2018-07-03T08:07:40.975Z,23.86
2018-07-03T08:08:40.971Z,23.86
